sensor_id;sensor_type;location;lat;lon;timestamp;pressure;altitude;pressure_sealevel;temperature;humidity
58771;BME280;44539;42.962;1.596;2022-07-23T07:05:21;97649.34;;;18.01;85.83
58771;BME280;44539;42.962;1.596;2022-07-23T07:07:48;97644.34;;;18.11;84.82
58771;BME280;44539;42.962;1.596;2022-07-23T07:10:13;97648.88;;;18.17;84.42
58771;BME280;44539;42.962;1.596;2022-07-23T07:12:41;97647.66;;;18.07;86.20
58771;BME280;44539;42.962;1.596;2022-07-23T07:15:07;97649.38;;;17.88;85.60
58771;BME280;44539;42.962;1.596;2022-07-23T07:17:32;97655.56;;;17.95;85.92
58771;BME280;44539;42.962;1.596;2022-07-23T07:19:58;97655.50;;;18.22;85.34
58771;BME280;44539;42.962;1.596;2022-07-23T07:22:23;97652.19;;;18.20;83.85
58771;BME280;44539;42.962;1.596;2022-07-23T07:24:49;97656.66;;;18.39;82.71
58771;BME280;44539;42.962;1.596;2022-07-23T07:27:14;97656.44;;;18.47;82.63
58771;BME280;44539;42.962;1.596;2022-07-23T07:29:39;97660.66;;;18.23;83.83
58771;BME280;44539;42.962;1.596;2022-07-23T07:32:05;97659.25;;;18.01;85.78
58771;BME280;44539;42.962;1.596;2022-07-23T07:34:30;97651.84;;;17.96;86.10
58771;BME280;44539;42.962;1.596;2022-07-23T07:36:56;97658.06;;;17.97;86.39
58771;BME280;44539;42.962;1.596;2022-07-23T07:39:21;97658.47;;;17.87;86.82
58771;BME280;44539;42.962;1.596;2022-07-23T07:41:47;97657.63;;;17.93;87.33
58771;BME280;44539;42.962;1.596;2022-07-23T07:44:12;97651.41;;;17.79;87.13
58771;BME280;44539;42.962;1.596;2022-07-23T07:46:38;97655.16;;;17.78;86.93
58771;BME280;44539;42.962;1.596;2022-07-23T07:49:03;97651.22;;;17.81;87.45
58771;BME280;44539;42.962;1.596;2022-07-23T07:51:28;97652.88;;;17.95;87.23
58771;BME280;44539;42.962;1.596;2022-07-23T07:53:54;97658.84;;;18.10;86.04
58771;BME280;44539;42.962;1.596;2022-07-23T07:56:19;97654.66;;;18.21;85.38
58771;BME280;44539;42.962;1.596;2022-07-23T07:58:45;97648.50;;;18.14;84.90
58771;BME280;44539;42.962;1.596;2022-07-23T08:01:10;97651.22;;;18.07;85.02
58771;BME280;44539;42.962;1.596;2022-07-23T08:03:35;97650.97;;;18.22;84.85
58771;BME280;44539;42.962;1.596;2022-07-23T08:06:01;97647.63;;;18.27;85.18
58771;BME280;44539;42.962;1.596;2022-07-23T08:08:26;97642.88;;;18.29;85.17
58771;BME280;44539;42.962;1.596;2022-07-23T08:10:52;97651.25;;;18.52;83.18
58771;BME280;44539;42.962;1.596;2022-07-23T08:13:17;97653.88;;;18.66;82.24
58771;BME280;44539;42.962;1.596;2022-07-23T08:15:43;97646.38;;;18.74;81.87
58771;BME280;44539;42.962;1.596;2022-07-23T08:18:09;97653.38;;;18.89;81.79
58771;BME280;44539;42.962;1.596;2022-07-23T08:20:35;97648.88;;;18.76;82.10
58771;BME280;44539;42.962;1.596;2022-07-23T08:23:06;97651.34;;;18.84;82.40
58771;BME280;44539;42.962;1.596;2022-07-23T08:25:36;97660.09;;;19.05;81.87
58771;BME280;44539;42.962;1.596;2022-07-23T08:28:03;97655.81;;;18.97;81.50
58771;BME280;44539;42.962;1.596;2022-07-23T08:30:30;97654.81;;;19.23;81.55
58771;BME280;44539;42.962;1.596;2022-07-23T08:32:59;97649.69;;;19.15;79.35
58771;BME280;44539;42.962;1.596;2022-07-23T08:35:36;97649.50;;;19.42;80.19
58771;BME280;44539;42.962;1.596;2022-07-23T08:38:04;97648.16;;;19.51;79.15
58771;BME280;44539;42.962;1.596;2022-07-23T08:40:34;97650.84;;;19.26;78.65
58771;BME280;44539;42.962;1.596;2022-07-23T08:43:08;97646.53;;;19.18;79.95
58771;BME280;44539;42.962;1.596;2022-07-23T08:45:40;97651.66;;;19.01;78.66
58771;BME280;44539;42.962;1.596;2022-07-23T08:48:13;97641.03;;;19.06;78.66
58771;BME280;44539;42.962;1.596;2022-07-23T08:50:42;97652.47;;;19.33;78.59
58771;BME280;44539;42.962;1.596;2022-07-23T08:53:08;97648.97;;;19.26;78.12
58771;BME280;44539;42.962;1.596;2022-07-23T08:55:34;97646.47;;;19.31;78.82
58771;BME280;44539;42.962;1.596;2022-07-23T08:58:00;97661.31;;;19.41;78.35
58771;BME280;44539;42.962;1.596;2022-07-23T09:00:26;97657.78;;;19.40;76.93
58771;BME280;44539;42.962;1.596;2022-07-23T09:02:51;97652.47;;;19.33;77.14
58771;BME280;44539;42.962;1.596;2022-07-23T09:05:18;97653.28;;;19.34;78.95
58771;BME280;44539;42.962;1.596;2022-07-23T09:08:03;97653.81;;;19.17;79.13
58771;BME280;44539;42.962;1.596;2022-07-23T09:10:28;97645.97;;;19.09;80.08
58771;BME280;44539;42.962;1.596;2022-07-23T09:12:54;97655.47;;;19.18;80.33
58771;BME280;44539;42.962;1.596;2022-07-23T09:15:19;97657.50;;;19.23;79.41
58771;BME280;44539;42.962;1.596;2022-07-23T09:17:45;97657.91;;;19.20;79.67
58771;BME280;44539;42.962;1.596;2022-07-23T09:20:13;97651.84;;;19.31;79.91
58771;BME280;44539;42.962;1.596;2022-07-23T09:22:46;97650.53;;;19.66;80.02
58771;BME280;44539;42.962;1.596;2022-07-23T09:25:14;97651.00;;;19.56;76.31
58771;BME280;44539;42.962;1.596;2022-07-23T09:30:25;97649.69;;;19.72;74.59
58771;BME280;44539;42.962;1.596;2022-07-23T09:33:12;97656.56;;;19.86;76.18
58771;BME280;44539;42.962;1.596;2022-07-23T09:35:47;97647.09;;;20.02;74.62
58771;BME280;44539;42.962;1.596;2022-07-23T09:38:13;97645.09;;;19.72;75.04
58771;BME280;44539;42.962;1.596;2022-07-23T09:40:39;97645.94;;;19.73;74.81
58771;BME280;44539;42.962;1.596;2022-07-23T09:43:04;97644.28;;;19.72;75.77
58771;BME280;44539;42.962;1.596;2022-07-23T09:45:30;97641.59;;;19.90;75.79
58771;BME280;44539;42.962;1.596;2022-07-23T09:48:15;97628.88;;;20.16;76.03
58771;BME280;44539;42.962;1.596;2022-07-23T09:50:41;97626.56;;;20.19;73.41
58771;BME280;44539;42.962;1.596;2022-07-23T09:53:07;97631.00;;;20.32;72.95
58771;BME280;44539;42.962;1.596;2022-07-23T09:55:34;97619.59;;;20.12;73.01
58771;BME280;44539;42.962;1.596;2022-07-23T09:58:05;97621.66;;;20.16;72.60
58771;BME280;44539;42.962;1.596;2022-07-23T10:00:32;97619.16;;;20.33;73.73
58771;BME280;44539;42.962;1.596;2022-07-23T10:02:59;97623.09;;;20.49;72.35
58771;BME280;44539;42.962;1.596;2022-07-23T10:05:25;97611.84;;;20.52;70.89
58771;BME280;44539;42.962;1.596;2022-07-23T10:07:51;97624.47;;;20.40;71.11
58771;BME280;44539;42.962;1.596;2022-07-23T10:10:17;97620.13;;;20.57;70.75
58771;BME280;44539;42.962;1.596;2022-07-23T10:12:44;97618.97;;;20.65;70.76
58771;BME280;44539;42.962;1.596;2022-07-23T10:15:16;97621.00;;;20.51;70.23
58771;BME280;44539;42.962;1.596;2022-07-23T10:17:42;97617.19;;;20.40;70.66
58771;BME280;44539;42.962;1.596;2022-07-23T10:20:08;97612.19;;;20.44;71.09
58771;BME280;44539;42.962;1.596;2022-07-23T10:22:36;97619.91;;;20.59;71.01
58771;BME280;44539;42.962;1.596;2022-07-23T10:27:58;97607.75;;;20.80;70.50
58771;BME280;44539;42.962;1.596;2022-07-23T10:36:40;97613.72;;;20.52;69.43
58771;BME280;44539;42.962;1.596;2022-07-23T10:39:26;97614.94;;;20.37;70.46
58771;BME280;44539;42.962;1.596;2022-07-23T10:42:13;97625.34;;;20.52;70.12
58771;BME280;44539;42.962;1.596;2022-07-23T10:44:43;97622.88;;;20.51;71.90
58771;BME280;44539;42.962;1.596;2022-07-23T10:47:10;97620.72;;;20.59;70.68
58771;BME280;44539;42.962;1.596;2022-07-23T10:50:24;97619.72;;;20.35;71.42
58771;BME280;44539;42.962;1.596;2022-07-23T10:55:41;97610.44;;;20.50;72.42
58771;BME280;44539;42.962;1.596;2022-07-23T10:58:07;97618.56;;;20.80;71.70
58771;BME280;44539;42.962;1.596;2022-07-23T11:00:34;97623.91;;;20.98;71.42
58771;BME280;44539;42.962;1.596;2022-07-23T11:03:02;97619.81;;;21.08;70.03
58771;BME280;44539;42.962;1.596;2022-07-23T11:05:44;97613.72;;;21.00;70.30
58771;BME280;44539;42.962;1.596;2022-07-23T11:08:16;97617.88;;;21.15;70.42
58771;BME280;44539;42.962;1.596;2022-07-23T11:16:06;97615.88;;;21.22;69.89
58771;BME280;44539;42.962;1.596;2022-07-23T11:24:16;97619.59;;;21.51;69.01
58771;BME280;44539;42.962;1.596;2022-07-23T11:26:50;97619.06;;;21.31;67.89
58771;BME280;44539;42.962;1.596;2022-07-23T11:31:56;97612.34;;;20.79;70.92
58771;BME280;44539;42.962;1.596;2022-07-23T11:36:55;97619.69;;;21.03;70.67
58771;BME280;44539;42.962;1.596;2022-07-23T11:39:21;97621.28;;;21.22;70.26
58771;BME280;44539;42.962;1.596;2022-07-23T11:41:49;97623.00;;;21.47;69.84
58771;BME280;44539;42.962;1.596;2022-07-23T11:44:28;97624.00;;;21.34;68.57
58771;BME280;44539;42.962;1.596;2022-07-23T11:46:58;97625.03;;;21.21;68.97
58771;BME280;44539;42.962;1.596;2022-07-23T11:49:25;97623.53;;;20.95;70.81
58771;BME280;44539;42.962;1.596;2022-07-23T11:52:11;97625.56;;;20.99;70.70
58771;BME280;44539;42.962;1.596;2022-07-23T11:57:24;97616.09;;;21.20;70.87
58771;BME280;44539;42.962;1.596;2022-07-23T11:59:53;97621.31;;;21.34;70.92
58771;BME280;44539;42.962;1.596;2022-07-23T12:02:21;97617.44;;;21.41;70.35
58771;BME280;44539;42.962;1.596;2022-07-23T12:04:49;97616.41;;;21.54;69.85
58771;BME280;44539;42.962;1.596;2022-07-23T12:07:40;97611.00;;;21.66;69.23
58771;BME280;44539;42.962;1.596;2022-07-23T12:10:15;97607.00;;;21.45;69.42
58771;BME280;44539;42.962;1.596;2022-07-23T12:12:44;97617.53;;;21.35;70.00
